createdAt,value
2023-05-11T00:01:37.017Z,93.00
2023-05-11T00:04:04.177Z,94.50
2023-05-11T00:06:32.343Z,94.50
2023-05-11T00:08:59.557Z,93.50
2023-05-11T00:11:26.680Z,94.30
2023-05-11T00:13:53.844Z,94.40
2023-05-11T00:16:21.235Z,94.80
2023-05-11T00:18:49.487Z,94.50
2023-05-11T00:21:16.674Z,93.30
2023-05-11T00:23:43.809Z,93.80
2023-05-11T00:26:11.252Z,93.50
2023-05-11T00:28:38.808Z,93.80
2023-05-11T00:31:07.359Z,93.90
2023-05-11T00:33:34.477Z,93.60
2023-05-11T00:36:03.166Z,94.40
2023-05-11T00:38:30.517Z,94.30
2023-05-11T00:40:58.461Z,94.50
2023-05-11T00:43:25.820Z,94.30
2023-05-11T00:45:53.666Z,95.10
2023-05-11T00:48:21.138Z,95.20
2023-05-11T00:50:48.886Z,96.20
2023-05-11T00:53:16.282Z,96.70
2023-05-11T00:55:43.529Z,96.70
2023-05-11T00:58:10.839Z,96.50
2023-05-11T01:00:38.173Z,97.20
2023-05-11T01:03:07.407Z,96.60
2023-05-11T01:06:13.108Z,96.60
2023-05-11T01:08:42.347Z,97.40
2023-05-11T01:11:48.345Z,96.70
2023-05-11T01:14:23.377Z,97.50
2023-05-11T01:16:57.024Z,98.50
2023-05-11T01:19:47.550Z,98.30
2023-05-11T01:22:35.065Z,97.80
2023-05-11T01:25:02.411Z,97.50
2023-05-11T01:27:51.926Z,98.00
2023-05-11T01:30:43.720Z,99.50
2023-05-11T01:33:13.496Z,98.60
2023-05-11T01:35:48.371Z,97.70
2023-05-11T01:38:19.402Z,98.80
2023-05-11T01:40:54.606Z,97.60
2023-05-11T01:43:25.903Z,98.00
2023-05-11T01:45:55.948Z,98.70
2023-05-11T01:48:30.623Z,98.70
2023-05-11T01:51:01.434Z,98.20
2023-05-11T01:53:35.784Z,98.20
2023-05-11T01:56:05.617Z,98.80
2023-05-11T01:58:35.444Z,99.40
2023-05-11T02:01:04.870Z,98.50
2023-05-11T02:03:35.304Z,98.20
2023-05-11T02:06:05.490Z,98.90
2023-05-11T02:08:34.697Z,98.50
2023-05-11T02:11:04.249Z,98.60
2023-05-11T02:13:35.376Z,99.40
2023-05-11T02:16:04.011Z,99.00
2023-05-11T02:18:33.368Z,99.10
2023-05-11T02:21:01.486Z,99.30
2023-05-11T02:23:33.009Z,99.90
2023-05-11T02:26:01.132Z,99.90
2023-05-11T02:28:28.745Z,99.50
2023-05-11T02:31:00.605Z,99.90
2023-05-11T02:33:33.178Z,99.80
2023-05-11T02:36:02.405Z,99.90
2023-05-11T02:38:36.323Z,99.70
2023-05-11T02:41:09.431Z,99.50
2023-05-11T02:43:43.159Z,99.90
2023-05-11T02:46:16.664Z,99.30
2023-05-11T02:48:47.723Z,99.70
2023-05-11T02:51:18.260Z,99.70
2023-05-11T02:53:51.950Z,99.90
2023-05-11T02:56:20.046Z,99.90
2023-05-11T02:58:47.460Z,99.90
2023-05-11T03:01:20.552Z,99.90
2023-05-11T03:03:48.306Z,99.90
2023-05-11T03:06:15.946Z,99.90
2023-05-11T03:08:43.701Z,99.90
2023-05-11T03:11:14.933Z,99.90
2023-05-11T03:13:43.351Z,99.90
2023-05-11T03:16:13.130Z,99.90
2023-05-11T03:18:41.022Z,99.90
2023-05-11T03:21:08.738Z,99.90
2023-05-11T03:23:36.941Z,99.90
2023-05-11T03:26:05.597Z,99.90
2023-05-11T03:28:33.455Z,99.90
2023-05-11T03:31:05.243Z,99.90
2023-05-11T03:33:33.487Z,99.90
2023-05-11T03:36:04.608Z,99.90
2023-05-11T03:38:35.156Z,99.90
2023-05-11T03:41:02.667Z,99.90
2023-05-11T03:43:36.377Z,99.90
2023-05-11T03:46:05.296Z,99.90
2023-05-11T03:48:33.226Z,99.90
2023-05-11T03:51:00.807Z,99.90
2023-05-11T03:53:28.088Z,99.90
2023-05-11T03:55:55.260Z,99.90
2023-05-11T03:58:22.941Z,99.90
2023-05-11T04:00:51.136Z,99.90
2023-05-11T04:03:18.538Z,99.90
2023-05-11T04:05:45.872Z,99.90
2023-05-11T04:08:13.878Z,99.90
2023-05-11T04:10:41.093Z,99.90
2023-05-11T04:13:08.278Z,99.90
2023-05-11T04:15:37.748Z,99.90
2023-05-11T04:18:05.099Z,99.90
2023-05-11T04:20:32.642Z,99.90
2023-05-11T04:22:59.847Z,99.90
2023-05-11T04:25:27.711Z,99.90
2023-05-11T04:27:54.846Z,99.90
2023-05-11T04:30:22.367Z,99.90
2023-05-11T04:32:49.756Z,99.90
2023-05-11T04:35:16.957Z,99.90
2023-05-11T04:37:44.053Z,99.90
2023-05-11T04:40:12.178Z,99.90
2023-05-11T04:42:43.847Z,99.90
2023-05-11T04:45:17.341Z,99.90
2023-05-11T04:47:44.688Z,99.90
2023-05-11T04:50:12.471Z,99.90
2023-05-11T04:52:39.952Z,99.90
2023-05-11T04:55:07.573Z,99.90
2023-05-11T04:57:34.948Z,99.90
2023-05-11T05:00:04.226Z,99.90
2023-05-11T05:02:32.767Z,99.90
2023-05-11T05:05:00.930Z,99.90
2023-05-11T05:07:28.072Z,99.90
2023-05-11T05:09:56.417Z,99.90
2023-05-11T05:12:23.504Z,99.90
2023-05-11T05:14:50.732Z,99.90
2023-05-11T05:17:18.033Z,99.90
2023-05-11T05:19:45.517Z,99.90
2023-05-11T05:22:12.738Z,99.90
2023-05-11T05:24:39.867Z,99.90
2023-05-11T05:27:07.110Z,99.90
2023-05-11T05:29:35.004Z,99.90
2023-05-11T05:32:02.277Z,99.90
2023-05-11T05:34:30.060Z,99.90
2023-05-11T05:36:57.184Z,99.90
2023-05-11T05:39:24.566Z,99.90
2023-05-11T05:41:52.384Z,99.90
2023-05-11T05:44:20.163Z,99.90
2023-05-11T05:46:47.580Z,99.90
2023-05-11T05:49:14.995Z,99.90
2023-05-11T05:51:42.873Z,99.90
2023-05-11T05:54:11.414Z,99.90
2023-05-11T05:56:38.605Z,99.90
2023-05-11T05:59:09.051Z,99.90
2023-05-11T06:01:36.801Z,99.90
2023-05-11T06:04:04.126Z,99.90
2023-05-11T06:06:32.423Z,99.90
2023-05-11T06:08:59.558Z,99.90
2023-05-11T06:11:27.442Z,99.90
2023-05-11T06:13:54.634Z,99.90
2023-05-11T06:16:21.855Z,99.90
2023-05-11T06:18:49.012Z,99.90
2023-05-11T06:21:16.198Z,99.90
2023-05-11T06:23:43.423Z,99.90
2023-05-11T06:26:11.910Z,99.90
2023-05-11T06:28:39.800Z,99.90
2023-05-11T06:31:11.265Z,99.90
2023-05-11T06:33:40.159Z,99.90
2023-05-11T06:36:12.248Z,99.90
2023-05-11T06:38:39.451Z,99.90
2023-05-11T06:41:09.832Z,99.90
2023-05-11T06:43:37.375Z,99.90
2023-05-11T06:46:05.342Z,99.90
2023-05-11T06:48:33.033Z,99.90
2023-05-11T06:51:00.247Z,99.90
2023-05-11T06:53:27.492Z,99.90
2023-05-11T06:55:58.278Z,99.80
2023-05-11T06:58:27.092Z,99.60
2023-05-11T07:00:54.182Z,99.00
2023-05-11T07:03:21.407Z,98.20
2023-05-11T07:05:48.463Z,98.90
2023-05-11T07:08:15.548Z,98.60
2023-05-11T07:10:42.688Z,98.50
2023-05-11T07:13:09.759Z,98.20
2023-05-11T07:15:36.845Z,97.30
2023-05-11T07:18:04.107Z,98.00
2023-05-11T07:20:31.361Z,97.80
2023-05-11T07:22:59.536Z,97.10
2023-05-11T07:25:26.665Z,96.40
2023-05-11T07:27:53.855Z,96.30
2023-05-11T07:30:21.301Z,95.00
2023-05-11T07:32:48.935Z,95.70
2023-05-11T07:35:16.521Z,95.90
2023-05-11T07:37:43.667Z,95.40
2023-05-11T07:40:11.333Z,96.00
2023-05-11T07:42:38.418Z,93.60
2023-05-11T07:45:05.960Z,92.40
2023-05-11T07:47:35.303Z,93.30
2023-05-11T07:50:04.312Z,92.90
2023-05-11T07:52:31.427Z,91.70
2023-05-11T07:54:58.512Z,92.00
2023-05-11T07:57:26.105Z,90.80
2023-05-11T07:59:53.279Z,90.90
2023-05-11T08:02:20.380Z,92.00
2023-05-11T08:04:47.507Z,91.80
2023-05-11T08:07:14.761Z,90.40
2023-05-11T08:09:44.094Z,89.40
2023-05-11T08:12:11.600Z,88.20
2023-05-11T08:14:39.195Z,88.00
2023-05-11T08:17:06.735Z,87.80
2023-05-11T08:19:34.224Z,88.10
2023-05-11T08:22:01.603Z,83.60
2023-05-11T08:24:28.827Z,85.00
2023-05-11T08:26:56.048Z,85.30
2023-05-11T08:29:23.250Z,84.50
2023-05-11T08:31:50.733Z,83.90
2023-05-11T08:34:20.076Z,83.80
2023-05-11T08:36:47.895Z,81.90
2023-05-11T08:39:21.546Z,84.70
2023-05-11T08:41:58.308Z,84.50
2023-05-11T08:44:27.440Z,82.40
2023-05-11T08:47:08.576Z,83.40
2023-05-11T08:49:42.906Z,82.70
2023-05-11T08:52:10.926Z,81.60
2023-05-11T08:54:38.476Z,80.90
2023-05-11T08:57:07.949Z,80.70
2023-05-11T08:59:35.985Z,80.70
2023-05-11T09:02:05.393Z,77.40
2023-05-11T09:04:34.738Z,76.70
2023-05-11T09:07:02.528Z,74.90
2023-05-11T09:09:30.327Z,75.90
2023-05-11T09:12:00.224Z,76.60
2023-05-11T09:14:27.966Z,77.00
2023-05-11T09:16:57.343Z,74.80
2023-05-11T09:19:26.197Z,70.40
2023-05-11T09:21:55.133Z,72.00
2023-05-11T09:24:24.501Z,74.00
2023-05-11T09:27:09.910Z,74.20
2023-05-11T09:29:37.886Z,76.00
2023-05-11T09:32:06.752Z,76.10
2023-05-11T09:34:34.017Z,74.40
2023-05-11T09:37:01.444Z,73.70
2023-05-11T09:39:44.724Z,73.40
2023-05-11T09:42:23.362Z,72.80
2023-05-11T09:44:50.814Z,73.10
2023-05-11T09:47:20.828Z,69.70
2023-05-11T09:49:48.776Z,70.50
2023-05-11T09:52:17.612Z,69.90
2023-05-11T09:54:50.637Z,67.20
2023-05-11T09:57:31.705Z,64.30
2023-05-11T10:00:00.420Z,63.90
2023-05-11T10:02:32.398Z,65.00
2023-05-11T10:05:01.999Z,64.80
2023-05-11T10:07:34.073Z,65.80
2023-05-11T10:10:02.263Z,65.90
2023-05-11T10:12:34.047Z,68.40
2023-05-11T10:15:07.185Z,66.30
2023-05-11T10:17:35.446Z,66.20
2023-05-11T10:20:04.556Z,65.00
2023-05-11T10:22:32.518Z,59.40
2023-05-11T10:25:01.679Z,61.40
2023-05-11T10:27:30.239Z,61.00
2023-05-11T10:29:59.503Z,60.10
2023-05-11T10:32:31.995Z,64.90
2023-05-11T10:35:02.848Z,65.60
2023-05-11T10:37:30.852Z,64.20
2023-05-11T10:39:58.214Z,64.20
2023-05-11T10:42:56.567Z,60.60
2023-05-11T10:45:45.323Z,59.70
2023-05-11T10:48:36.717Z,57.20
2023-05-11T10:51:38.972Z,57.80
2023-05-11T10:54:34.820Z,54.10
2023-05-11T10:57:14.219Z,53.00
2023-05-11T10:59:42.163Z,51.40
2023-05-11T11:02:10.320Z,51.30
2023-05-11T11:04:46.158Z,51.60
2023-05-11T11:07:18.773Z,49.50
2023-05-11T11:10:00.764Z,48.10
2023-05-11T11:12:29.866Z,48.00
2023-05-11T11:15:07.285Z,50.20
2023-05-11T11:17:38.224Z,50.80
2023-05-11T11:20:17.646Z,51.10
2023-05-11T11:22:47.592Z,51.80
2023-05-11T11:25:35.817Z,48.40
2023-05-11T11:28:05.473Z,44.80
2023-05-11T11:30:33.816Z,46.80
2023-05-11T11:33:10.101Z,47.30
2023-05-11T11:35:43.128Z,47.70
2023-05-11T11:38:19.762Z,48.90
2023-05-11T11:40:54.126Z,49.80
2023-05-11T11:43:45.841Z,50.00
2023-05-11T11:46:27.289Z,49.30
2023-05-11T11:49:10.260Z,48.90
2023-05-11T11:51:40.510Z,46.30
2023-05-11T11:54:41.054Z,46.10
2023-05-11T11:57:30.163Z,46.80
2023-05-11T12:00:07.449Z,45.80
2023-05-11T12:02:45.890Z,47.90
2023-05-11T12:05:27.206Z,49.20
2023-05-11T12:07:54.832Z,47.80
2023-05-11T12:10:43.936Z,47.70
2023-05-11T12:13:11.457Z,45.40
2023-05-11T12:15:38.820Z,46.90
2023-05-11T12:19:01.042Z,46.30
2023-05-11T12:21:33.967Z,46.80
2023-05-11T12:24:12.697Z,46.40
2023-05-11T12:26:39.873Z,48.10
2023-05-11T12:29:41.620Z,48.40
2023-05-11T12:32:13.694Z,46.80
2023-05-11T12:35:01.467Z,45.80
2023-05-11T12:37:32.845Z,47.60
2023-05-11T12:41:11.669Z,46.30
2023-05-11T12:43:38.844Z,47.90
2023-05-11T12:46:07.782Z,48.20
2023-05-11T12:49:27.846Z,47.20
2023-05-11T12:52:09.736Z,46.50
2023-05-11T12:55:44.112Z,46.10
2023-05-11T14:13:39.770Z,40.90
2023-05-11T14:16:10.236Z,33.70
2023-05-11T14:19:15.405Z,35.20
2023-05-11T14:21:43.033Z,36.30
2023-05-11T14:24:12.630Z,41.80
2023-05-11T14:30:13.381Z,44.20
2023-05-11T14:32:43.430Z,44.50
2023-05-11T14:35:15.746Z,47.50
2023-05-11T14:37:42.877Z,46.70
2023-05-11T14:40:10.436Z,45.20
2023-05-11T14:43:46.338Z,48.00
2023-05-11T14:46:14.324Z,48.30
2023-05-11T14:48:42.367Z,47.40
2023-05-11T14:51:12.556Z,47.90
2023-05-11T14:53:43.038Z,48.30
2023-05-11T14:58:55.429Z,50.40
2023-05-11T15:01:23.858Z,52.10
2023-05-11T15:03:51.033Z,52.50
2023-05-11T15:09:13.962Z,49.30
2023-05-11T15:11:41.369Z,51.40
2023-05-11T15:14:08.812Z,50.90
2023-05-11T15:16:36.119Z,52.40
2023-05-11T15:19:03.954Z,52.20
2023-05-11T15:21:37.311Z,52.70
2023-05-11T15:24:04.904Z,53.30
2023-05-11T15:26:33.380Z,49.50
2023-05-11T15:29:00.721Z,49.70
2023-05-11T15:31:28.695Z,50.80
2023-05-11T15:33:55.965Z,52.10
2023-05-11T15:36:23.059Z,52.80
2023-05-11T15:38:50.351Z,54.30
2023-05-11T15:41:17.776Z,51.80
2023-05-11T15:43:45.166Z,53.50
2023-05-11T15:46:12.442Z,52.30
2023-05-11T15:48:39.760Z,52.20
2023-05-11T15:51:06.974Z,52.40
2023-05-11T15:53:34.634Z,54.00
2023-05-11T15:56:02.107Z,49.90
2023-05-11T15:58:29.480Z,50.70
2023-05-11T16:00:58.641Z,51.10
2023-05-11T16:03:26.238Z,50.20
2023-05-11T16:05:53.650Z,51.80
2023-05-11T16:08:20.972Z,50.00
2023-05-11T16:10:49.202Z,50.30
2023-05-11T16:13:16.330Z,49.50
2023-05-11T16:15:43.626Z,47.60
2023-05-11T16:18:10.990Z,47.80
2023-05-11T16:20:38.558Z,49.10
2023-05-11T16:23:07.380Z,49.40
2023-05-11T16:25:34.531Z,50.90
2023-05-11T16:28:01.711Z,49.20
2023-05-11T16:30:30.924Z,51.00
2023-05-11T16:32:58.394Z,50.80
2023-05-11T16:35:25.992Z,51.40
2023-05-11T16:37:54.134Z,51.80
2023-05-11T16:40:21.736Z,52.40
2023-05-11T16:42:50.951Z,52.90
2023-05-11T16:45:18.830Z,57.30
2023-05-11T16:47:46.784Z,58.90
2023-05-11T16:50:15.063Z,73.20
2023-05-11T16:52:43.921Z,71.10
2023-05-11T16:55:14.371Z,79.30
2023-05-11T16:57:44.088Z,76.60
2023-05-11T17:00:13.359Z,84.90
2023-05-11T17:02:41.716Z,77.70
2023-05-11T17:05:11.878Z,72.50
2023-05-11T17:07:43.290Z,70.30
2023-05-11T17:10:11.702Z,72.50
2023-05-11T17:12:40.914Z,72.60
2023-05-11T17:15:10.421Z,79.30
2023-05-11T17:17:40.037Z,75.90
2023-05-11T17:20:08.412Z,74.40
2023-05-11T17:22:36.462Z,73.70
2023-05-11T17:25:04.636Z,74.70
2023-05-11T17:27:32.598Z,73.10
2023-05-11T17:30:00.392Z,72.90
2023-05-11T17:32:27.906Z,77.50
2023-05-11T17:34:55.259Z,74.00
2023-05-11T17:37:31.800Z,77.00
2023-05-11T17:40:04.238Z,67.10
2023-05-11T17:42:31.600Z,69.60
2023-05-11T17:44:59.043Z,67.20
2023-05-11T17:47:26.887Z,70.00
2023-05-11T17:49:54.464Z,71.80
2023-05-11T17:52:23.319Z,74.60
2023-05-11T17:54:50.402Z,68.90
2023-05-11T17:57:17.638Z,71.50
2023-05-11T17:59:46.779Z,75.30
2023-05-11T18:02:13.938Z,71.10
2023-05-11T18:04:42.160Z,74.90
2023-05-11T18:07:09.908Z,69.60
2023-05-11T18:09:37.048Z,68.00
2023-05-11T18:12:05.077Z,67.80
2023-05-11T18:14:32.270Z,73.00
2023-05-11T18:16:59.359Z,76.30
2023-05-11T18:19:27.052Z,73.90
2023-05-11T18:21:54.356Z,67.70
2023-05-11T18:24:21.541Z,69.40
2023-05-11T18:26:48.617Z,66.40
2023-05-11T18:29:19.375Z,69.00
2023-05-11T18:31:46.983Z,68.40
2023-05-11T18:34:14.066Z,66.50
2023-05-11T18:36:41.285Z,64.30
2023-05-11T18:39:08.438Z,65.70
2023-05-11T18:41:35.552Z,62.20
2023-05-11T18:44:03.407Z,59.80
2023-05-11T18:46:30.514Z,60.70
2023-05-11T18:48:57.576Z,60.10
2023-05-11T18:51:25.418Z,60.60
2023-05-11T18:53:52.610Z,62.10
2023-05-11T18:56:22.375Z,60.00
2023-05-11T18:58:50.509Z,59.50
2023-05-11T19:01:19.016Z,61.30
2023-05-11T19:03:46.360Z,60.20
2023-05-11T19:06:13.524Z,58.50
2023-05-11T19:08:41.106Z,58.20
2023-05-11T19:11:10.510Z,57.50
2023-05-11T19:13:37.873Z,57.60
2023-05-11T19:16:05.480Z,58.40
2023-05-11T19:18:35.618Z,57.20
2023-05-11T19:21:07.048Z,58.00
2023-05-11T19:23:34.170Z,61.60
2023-05-11T19:26:01.289Z,59.10
2023-05-11T19:28:28.444Z,59.50
2023-05-11T19:31:06.085Z,59.70
2023-05-11T19:33:33.641Z,61.70
2023-05-11T19:36:01.104Z,59.40
2023-05-11T19:38:28.650Z,59.70
2023-05-11T19:40:55.936Z,60.30
2023-05-11T19:43:23.804Z,59.60
2023-05-11T19:45:51.032Z,60.00
2023-05-11T19:48:19.158Z,59.60
2023-05-11T19:50:46.373Z,60.10
2023-05-11T19:53:13.533Z,60.90
2023-05-11T19:55:41.514Z,62.20
2023-05-11T19:58:08.606Z,60.90
2023-05-11T20:00:35.724Z,61.10
2023-05-11T20:03:03.549Z,61.60
2023-05-11T20:05:30.723Z,60.80
2023-05-11T20:07:57.793Z,60.50
2023-05-11T20:10:25.010Z,61.90
2023-05-11T20:12:52.132Z,62.00
2023-05-11T20:15:19.585Z,62.70
2023-05-11T20:17:46.789Z,62.80
2023-05-11T20:20:14.088Z,63.50
2023-05-11T20:22:41.784Z,63.50
2023-05-11T20:25:17.547Z,62.70
2023-05-11T20:27:46.068Z,62.30
2023-05-11T20:30:13.607Z,63.90
2023-05-11T20:34:06.974Z,63.50
2023-05-11T20:35:28.376Z,64.30
2023-05-11T20:37:55.555Z,65.10
2023-05-11T20:40:22.696Z,64.50
2023-05-11T20:42:49.769Z,65.10
2023-05-11T20:45:16.994Z,64.00
2023-05-11T20:47:44.166Z,66.20
2023-05-11T20:50:12.258Z,65.70
2023-05-11T20:52:39.822Z,65.80
2023-05-11T20:55:07.665Z,65.30
2023-05-11T20:57:34.885Z,67.00
2023-05-11T21:00:05.117Z,65.40
2023-05-11T21:02:32.529Z,64.60
2023-05-11T21:05:02.330Z,66.00
2023-05-11T21:07:30.316Z,67.90
2023-05-11T21:09:57.487Z,66.30
2023-05-11T21:12:24.656Z,67.90
2023-05-11T21:14:51.703Z,65.40
2023-05-11T21:17:18.836Z,66.40
2023-05-11T21:19:45.916Z,65.80
2023-05-11T21:22:12.995Z,66.40
2023-05-11T21:24:40.221Z,66.50
2023-05-11T21:27:09.223Z,66.30
2023-05-11T21:29:36.467Z,66.40
2023-05-11T21:32:03.840Z,66.60
2023-05-11T21:34:31.107Z,68.00
2023-05-11T21:36:59.826Z,68.80
2023-05-11T21:39:26.862Z,66.60
2023-05-11T21:41:54.220Z,67.20
2023-05-11T21:44:21.349Z,68.90
2023-05-11T21:46:48.660Z,69.10
2023-05-11T21:49:16.157Z,69.10
2023-05-11T21:51:43.500Z,68.00
2023-05-11T21:54:10.911Z,69.10
2023-05-11T21:56:38.087Z,69.60
2023-05-11T21:59:05.391Z,68.60
2023-05-11T22:01:32.686Z,69.10
2023-05-11T22:04:02.816Z,69.00
2023-05-11T22:06:30.049Z,69.70
2023-05-11T22:08:57.080Z,69.40
2023-05-11T22:11:24.421Z,68.30
2023-05-11T22:13:51.532Z,69.70
2023-05-11T22:16:21.248Z,68.70
2023-05-11T22:18:48.372Z,69.10
2023-05-11T22:21:15.570Z,68.80
2023-05-11T22:23:42.647Z,69.00
2023-05-11T22:26:09.727Z,68.40
2023-05-11T22:28:36.939Z,68.10
2023-05-11T22:31:04.075Z,68.00
2023-05-11T22:33:31.153Z,68.50
2023-05-11T22:35:58.225Z,67.90
2023-05-11T22:38:25.299Z,68.70
2023-05-11T22:40:52.400Z,68.50
2023-05-11T22:43:19.474Z,68.70
2023-05-11T22:45:46.564Z,68.10
2023-05-11T22:48:14.549Z,68.80
2023-05-11T22:50:47.611Z,69.70
2023-05-11T22:53:15.498Z,69.00
2023-05-11T22:55:42.638Z,69.50
2023-05-11T22:58:09.771Z,68.90
2023-05-11T23:00:37.375Z,69.30
2023-05-11T23:03:04.785Z,70.00
2023-05-11T23:05:32.084Z,69.40
2023-05-11T23:08:00.035Z,69.10
2023-05-11T23:10:28.811Z,69.30
2023-05-11T23:12:56.594Z,69.60
2023-05-11T23:15:23.656Z,68.90
2023-05-11T23:17:51.055Z,69.10
2023-05-11T23:20:18.464Z,69.20
2023-05-11T23:22:46.151Z,69.60
2023-05-11T23:25:13.380Z,70.00
2023-05-11T23:27:40.681Z,68.70
2023-05-11T23:30:08.403Z,69.40
2023-05-11T23:32:35.704Z,69.90
2023-05-11T23:35:02.896Z,69.90
2023-05-11T23:37:29.997Z,69.50
2023-05-11T23:39:57.113Z,69.40
2023-05-11T23:42:24.419Z,70.00
2023-05-11T23:44:52.046Z,70.30
2023-05-11T23:47:19.451Z,71.50
2023-05-11T23:49:46.806Z,70.30
2023-05-11T23:52:13.990Z,70.50
2023-05-11T23:54:41.180Z,70.10
2023-05-11T23:57:08.288Z,70.50
2023-05-11T23:59:35.423Z,71.00
